createdAt,value
2018-12-13T00:00:30.349Z,93.06
2018-12-13T00:03:05.600Z,93.08
2018-12-13T00:05:39.725Z,93.06
2018-12-13T00:08:14.477Z,93.06
2018-12-13T00:10:48.053Z,92.96
2018-12-13T00:13:21.046Z,92.81
2018-12-13T00:15:54.663Z,92.45
2018-12-13T00:18:32.295Z,92.14
2018-12-13T00:21:05.227Z,91.82
2018-12-13T00:23:38.075Z,91.79
2018-12-13T00:26:13.901Z,91.90
2018-12-13T00:28:48.756Z,92.06
2018-12-13T00:31:24.202Z,92.14
2018-12-13T00:34:03.811Z,92.36
2018-12-13T00:36:39.788Z,92.44
2018-12-13T00:39:23.641Z,92.40
2018-12-13T00:41:58.949Z,92.54
2018-12-13T00:44:32.808Z,92.76
2018-12-13T00:47:08.708Z,92.89
2018-12-13T00:49:47.457Z,92.95
2018-12-13T00:52:20.484Z,92.91
2018-12-13T00:54:56.760Z,93.19
2018-12-13T00:57:30.916Z,93.56
2018-12-13T01:00:06.262Z,93.79
2018-12-13T01:02:39.484Z,94.01
2018-12-13T01:05:15.408Z,94.17
2018-12-13T01:07:49.451Z,94.26
2018-12-13T01:10:23.440Z,94.26
2018-12-13T01:12:57.756Z,94.39
2018-12-13T01:15:34.265Z,94.55
2018-12-13T01:18:09.017Z,94.71
2018-12-13T01:20:43.377Z,94.82
2018-12-13T01:23:18.286Z,94.89
2018-12-13T01:25:53.746Z,94.91
2018-12-13T01:28:28.618Z,94.83
2018-12-13T01:31:02.658Z,95.01
2018-12-13T01:33:45.305Z,95.18
2018-12-13T01:36:20.103Z,95.35
2018-12-13T01:38:54.682Z,95.48
2018-12-13T01:41:28.762Z,95.67
2018-12-13T01:44:02.937Z,95.77
2018-12-13T01:46:36.727Z,95.80
2018-12-13T01:49:13.780Z,95.72
2018-12-13T01:51:47.547Z,95.76
2018-12-13T01:54:20.445Z,96.03
2018-12-13T01:56:57.620Z,96.12
2018-12-13T01:59:34.039Z,96.07
2018-12-13T02:02:07.718Z,96.08
2018-12-13T02:04:46.381Z,96.08
2018-12-13T02:07:20.788Z,96.26
2018-12-13T02:09:58.444Z,96.41
2018-12-13T02:12:34.104Z,96.61
2018-12-13T02:15:25.590Z,96.78
2018-12-13T02:17:59.807Z,96.77
2018-12-13T02:20:38.855Z,96.92
2018-12-13T02:23:14.533Z,96.95
2018-12-13T02:25:50.073Z,97.15
2018-12-13T02:28:26.066Z,97.47
2018-12-13T02:31:03.340Z,97.67
2018-12-13T02:33:38.164Z,97.71
2018-12-13T02:36:14.384Z,97.73
2018-12-13T02:38:47.791Z,97.75
2018-12-13T02:41:22.521Z,97.59
2018-12-13T02:43:57.327Z,97.38
2018-12-13T02:46:32.520Z,97.23
2018-12-13T02:49:10.644Z,97.15
2018-12-13T02:51:47.238Z,97.02
2018-12-13T02:54:20.631Z,96.85
2018-12-13T02:56:54.890Z,96.72
2018-12-13T02:59:27.865Z,96.59
2018-12-13T03:02:00.956Z,96.46
2018-12-13T03:04:34.200Z,96.28
2018-12-13T03:07:13.716Z,96.14
2018-12-13T03:09:48.009Z,95.92
2018-12-13T03:12:24.435Z,95.81
2018-12-13T03:15:04.432Z,95.89
2018-12-13T03:17:38.574Z,95.81
2018-12-13T03:20:15.370Z,95.73
2018-12-13T03:22:50.382Z,95.67
2018-12-13T03:25:25.274Z,95.75
2018-12-13T03:27:59.631Z,95.84
2018-12-13T03:30:34.338Z,95.82
2018-12-13T03:33:09.158Z,95.94
2018-12-13T03:35:43.608Z,96.10
2018-12-13T03:38:17.451Z,96.21
2018-12-13T03:40:51.308Z,96.12
2018-12-13T03:43:25.618Z,96.00
2018-12-13T03:45:58.714Z,96.06
2018-12-13T03:48:31.867Z,96.37
2018-12-13T03:51:05.218Z,96.46
2018-12-13T03:53:38.151Z,96.52
2018-12-13T03:56:11.021Z,96.57
2018-12-13T03:58:44.525Z,96.71
2018-12-13T04:01:17.365Z,96.81
2018-12-13T04:03:50.619Z,96.77
2018-12-13T04:06:23.969Z,96.77
2018-12-13T04:08:56.865Z,96.99
2018-12-13T04:11:30.036Z,96.99
2018-12-13T04:14:03.536Z,96.96
2018-12-13T04:16:36.536Z,97.00
2018-12-13T04:19:09.426Z,97.02
2018-12-13T04:21:42.898Z,96.97
2018-12-13T04:24:16.167Z,96.94
2018-12-13T04:26:50.035Z,97.06
2018-12-13T04:29:23.600Z,97.11
2018-12-13T04:31:56.908Z,97.19
2018-12-13T04:34:29.914Z,97.17
2018-12-13T04:37:03.462Z,97.18
2018-12-13T04:39:36.645Z,97.19
2018-12-13T04:42:09.603Z,97.18
2018-12-13T04:44:43.148Z,97.08
2018-12-13T04:47:16.145Z,96.90
2018-12-13T04:49:49.651Z,96.77
2018-12-13T04:52:23.173Z,96.54
2018-12-13T04:54:56.444Z,96.20
2018-12-13T04:57:29.294Z,95.83
2018-12-13T05:00:06.139Z,95.45
2018-12-13T05:02:39.917Z,95.06
2018-12-13T05:05:13.068Z,94.97
2018-12-13T05:07:46.803Z,94.85
2018-12-13T05:10:42.192Z,94.75
2018-12-13T05:13:15.635Z,95.01
2018-12-13T05:15:48.844Z,95.15
2018-12-13T05:18:21.771Z,95.16
2018-12-13T05:21:06.713Z,95.15
2018-12-13T05:23:39.773Z,95.13
2018-12-13T05:26:12.934Z,95.05
2018-12-13T05:28:45.907Z,95.00
2018-12-13T05:31:20.490Z,95.11
2018-12-13T05:33:53.713Z,95.27
2018-12-13T05:36:26.684Z,95.25
2018-12-13T05:39:00.573Z,95.27
2018-12-13T05:41:33.964Z,95.35
2018-12-13T05:44:07.304Z,95.44
2018-12-13T05:46:41.924Z,95.60
2018-12-13T05:49:14.856Z,95.61
2018-12-13T05:51:47.862Z,95.63
2018-12-13T05:54:21.172Z,95.73
2018-12-13T05:56:54.225Z,95.81
2018-12-13T05:59:27.171Z,95.92
2018-12-13T06:02:00.248Z,95.93
2018-12-13T06:04:33.172Z,96.01
2018-12-13T06:07:06.195Z,96.14
2018-12-13T06:09:41.777Z,96.17
2018-12-13T06:12:16.416Z,96.26
2018-12-13T06:14:51.005Z,96.33
2018-12-13T06:17:24.881Z,96.48
2018-12-13T06:19:58.418Z,96.53
2018-12-13T06:22:31.777Z,96.60
2018-12-13T06:25:05.883Z,96.81
2018-12-13T06:27:40.885Z,96.78
2018-12-13T06:30:15.389Z,96.76
2018-12-13T06:32:49.091Z,96.90
2018-12-13T06:35:22.163Z,96.98
2018-12-13T06:38:01.087Z,97.11
2018-12-13T06:40:34.677Z,97.13
2018-12-13T06:43:07.961Z,97.03
2018-12-13T06:45:40.854Z,97.07
2018-12-13T06:48:13.828Z,97.21
2018-12-13T06:50:48.389Z,97.19
2018-12-13T06:53:25.311Z,97.14
2018-12-13T06:55:59.337Z,97.25
2018-12-13T06:58:32.564Z,97.37
2018-12-13T07:01:05.795Z,97.33
2018-12-13T07:03:40.651Z,97.43
2018-12-13T07:06:15.562Z,97.57
2018-12-13T07:08:50.105Z,97.54
2018-12-13T07:11:22.981Z,97.62
2018-12-13T07:13:56.942Z,97.63
2018-12-13T07:16:30.381Z,97.58
2018-12-13T07:19:06.585Z,97.45
2018-12-13T07:21:39.696Z,97.35
2018-12-13T07:24:13.952Z,97.27
2018-12-13T07:26:48.388Z,97.27
2018-12-13T07:29:22.244Z,97.38
2018-12-13T07:31:55.713Z,97.33
2018-12-13T07:34:28.723Z,97.27
2018-12-13T07:37:02.326Z,97.24
2018-12-13T07:39:37.506Z,97.22
2018-12-13T07:42:10.516Z,97.14
2018-12-13T07:44:44.156Z,96.94
2018-12-13T07:47:19.302Z,96.80
2018-12-13T07:49:52.899Z,96.63
2018-12-13T07:52:30.473Z,96.49
2018-12-13T07:55:03.892Z,96.30
2018-12-13T07:57:37.152Z,96.17
2018-12-13T08:00:11.008Z,95.96
2018-12-13T08:02:47.045Z,95.73
2018-12-13T08:05:21.262Z,95.74
2018-12-13T08:07:58.583Z,95.70
2018-12-13T08:10:32.384Z,95.68
2018-12-13T08:13:05.688Z,95.55
2018-12-13T08:15:40.380Z,95.58
2018-12-13T08:18:13.454Z,95.46
2018-12-13T08:20:46.778Z,95.36
2018-12-13T08:23:20.915Z,95.16
2018-12-13T08:25:54.708Z,94.99
2018-12-13T08:28:29.620Z,94.79
2018-12-13T08:31:04.963Z,94.56
2018-12-13T08:33:38.516Z,94.37
2018-12-13T08:36:11.938Z,94.21
2018-12-13T08:38:45.315Z,94.02
2018-12-13T08:41:19.407Z,93.88
2018-12-13T08:43:52.888Z,93.65
2018-12-13T08:46:26.568Z,93.45
2018-12-13T08:48:59.737Z,93.17
2018-12-13T08:51:33.348Z,92.97
2018-12-13T08:54:06.622Z,92.93
2018-12-13T08:56:39.745Z,92.75
2018-12-13T08:59:13.388Z,92.63
2018-12-13T09:01:46.445Z,92.46
2018-12-13T09:04:19.143Z,92.31
2018-12-13T09:06:57.670Z,92.02
2018-12-13T09:09:32.475Z,91.78
2018-12-13T09:12:06.461Z,91.57
2018-12-13T09:14:44.505Z,91.06
2018-12-13T09:17:20.010Z,90.45
2018-12-13T09:19:55.026Z,90.00
2018-12-13T09:22:29.451Z,89.58
2018-12-13T09:25:05.341Z,88.82
2018-12-13T09:27:39.087Z,87.90
2018-12-13T09:30:13.119Z,87.66
2018-12-13T09:32:46.117Z,87.73
2018-12-13T09:35:18.745Z,87.32
2018-12-13T09:37:53.138Z,87.00
2018-12-13T09:40:26.977Z,87.32
2018-12-13T09:42:59.725Z,87.29
2018-12-13T09:45:32.486Z,87.19
2018-12-13T09:48:06.478Z,87.18
2018-12-13T09:50:41.473Z,87.20
2018-12-13T09:53:16.420Z,87.07
2018-12-13T09:55:49.277Z,86.99
2018-12-13T09:58:23.560Z,86.31
2018-12-13T10:00:57.144Z,85.78
2018-12-13T10:03:40.756Z,84.79
2018-12-13T10:06:14.211Z,84.67
2018-12-13T10:08:46.911Z,84.70
2018-12-13T10:11:21.720Z,83.86
2018-12-13T10:13:55.640Z,83.44
2018-12-13T10:16:28.445Z,84.33
2018-12-13T10:19:02.111Z,84.88
2018-12-13T10:21:34.792Z,84.25
2018-12-13T10:24:08.029Z,81.26
2018-12-13T10:26:41.412Z,79.78
2018-12-13T10:29:15.629Z,77.62
2018-12-13T10:31:50.048Z,75.47
2018-12-13T10:34:25.697Z,74.04
2018-12-13T10:37:01.886Z,74.38
2018-12-13T10:39:35.408Z,74.34
2018-12-13T10:42:08.746Z,73.13
2018-12-13T10:44:42.273Z,74.13
2018-12-13T10:47:15.008Z,71.14
2018-12-13T10:49:48.980Z,71.02
2018-12-13T10:52:21.777Z,70.77
2018-12-13T10:54:54.834Z,70.61
2018-12-13T10:57:27.649Z,70.51
2018-12-13T11:00:03.454Z,70.28
2018-12-13T11:03:34.675Z,68.90
2018-12-13T11:06:09.814Z,69.13
2018-12-13T11:08:46.703Z,69.64
2018-12-13T11:11:22.121Z,69.09
2018-12-13T11:13:55.792Z,69.92
2018-12-13T11:16:33.214Z,68.80
2018-12-13T11:19:07.398Z,70.28
2018-12-13T11:21:40.232Z,69.28
2018-12-13T11:24:13.963Z,68.39
2018-12-13T11:26:48.084Z,68.03
2018-12-13T11:29:55.431Z,68.21
2018-12-13T11:32:28.162Z,65.09
2018-12-13T11:35:05.208Z,66.39
2018-12-13T11:37:39.679Z,62.50
2018-12-13T11:40:13.096Z,61.95
2018-12-13T11:42:50.816Z,60.41
2018-12-13T11:45:25.536Z,61.31
2018-12-13T11:47:59.374Z,59.79
2018-12-13T11:50:33.064Z,59.32
2018-12-13T11:53:06.376Z,58.86
2018-12-13T11:55:40.519Z,59.49
2018-12-13T11:58:17.481Z,58.74
2018-12-13T12:00:50.124Z,59.08
2018-12-13T12:03:23.026Z,57.93
2018-12-13T12:05:57.437Z,58.44
2018-12-13T12:08:30.660Z,60.08
2018-12-13T12:11:03.349Z,59.80
2018-12-13T12:13:39.488Z,58.32
2018-12-13T12:16:11.974Z,56.77
2018-12-13T12:18:44.600Z,56.52
2018-12-13T12:21:20.738Z,56.68
2018-12-13T12:23:53.323Z,56.22
2018-12-13T12:26:27.202Z,54.93
2018-12-13T12:29:00.673Z,54.74
2018-12-13T12:31:33.940Z,54.57
2018-12-13T12:34:10.705Z,53.38
2018-12-13T12:36:46.348Z,53.72
2018-12-13T12:39:21.077Z,52.38
2018-12-13T12:41:53.831Z,53.21
2018-12-13T12:44:33.536Z,54.23
2018-12-13T12:47:07.486Z,54.15
2018-12-13T12:49:40.648Z,54.66
2018-12-13T12:52:15.248Z,54.28
2018-12-13T12:54:50.051Z,53.79
2018-12-13T12:57:29.231Z,54.35
2018-12-13T13:00:07.049Z,52.90
2018-12-13T13:02:40.992Z,53.18
2018-12-13T13:05:18.726Z,53.53
2018-12-13T13:07:53.095Z,53.03
2018-12-13T13:10:25.871Z,52.09
2018-12-13T13:12:58.657Z,51.70
2018-12-13T13:15:32.810Z,51.99
2018-12-13T13:18:06.459Z,51.88
2018-12-13T13:20:41.023Z,52.25
2018-12-13T13:23:16.659Z,50.68
2018-12-13T13:25:50.201Z,51.07
2018-12-13T13:28:22.938Z,51.45
2018-12-13T13:30:56.173Z,50.50
2018-12-13T13:33:30.463Z,52.84
2018-12-13T13:36:03.251Z,57.61
2018-12-13T13:38:37.969Z,58.94
2018-12-13T13:41:14.384Z,60.30
2018-12-13T13:43:47.561Z,61.49
2018-12-13T13:46:25.349Z,61.86
2018-12-13T13:48:58.266Z,62.12
2018-12-13T13:51:32.005Z,62.61
2018-12-13T13:54:05.871Z,62.64
2018-12-13T13:56:39.268Z,62.93
2018-12-13T13:59:15.461Z,62.72
2018-12-13T14:01:49.179Z,62.51
2018-12-13T14:04:23.614Z,62.66
2018-12-13T14:06:57.842Z,63.15
2018-12-13T14:09:30.688Z,62.79
2018-12-13T14:12:05.619Z,63.52
2018-12-13T14:14:40.323Z,62.59
2018-12-13T14:17:15.660Z,62.94
2018-12-13T14:19:49.727Z,63.19
2018-12-13T14:22:24.615Z,63.27
2018-12-13T14:24:57.410Z,63.67
2018-12-13T14:27:33.550Z,63.90
2018-12-13T14:30:09.335Z,63.70
2018-12-13T14:32:42.553Z,63.94
2018-12-13T14:35:17.724Z,64.26
2018-12-13T14:37:50.320Z,64.49
2018-12-13T14:40:23.058Z,63.95
2018-12-13T14:42:58.590Z,63.62
2018-12-13T14:45:32.634Z,64.08
2018-12-13T14:48:09.101Z,64.87
2018-12-13T14:50:43.302Z,64.81
2018-12-13T14:53:18.818Z,65.59
2018-12-13T14:55:52.837Z,65.90
2018-12-13T14:58:26.070Z,66.26
2018-12-13T15:00:59.453Z,66.86
2018-12-13T15:03:33.919Z,67.26
2018-12-13T15:06:07.351Z,67.54
2018-12-13T15:08:40.864Z,67.91
2018-12-13T15:11:14.681Z,68.14
2018-12-13T15:13:48.844Z,68.52
2018-12-13T15:16:23.620Z,68.66
2018-12-13T15:18:57.836Z,68.93
2018-12-13T15:21:32.240Z,69.54
2018-12-13T15:24:05.700Z,69.83
2018-12-13T15:26:41.662Z,70.25
2018-12-13T15:29:15.964Z,70.75
2018-12-13T15:31:49.865Z,71.55
2018-12-13T15:34:23.644Z,71.51
2018-12-13T15:36:56.846Z,71.72
2018-12-13T15:39:29.605Z,72.04
2018-12-13T15:42:10.096Z,72.54
2018-12-13T15:44:46.494Z,72.34
2018-12-13T15:47:19.951Z,72.86
2018-12-13T15:49:58.382Z,72.74
2018-12-13T15:52:36.078Z,73.14
2018-12-13T15:55:09.197Z,73.41
2018-12-13T15:57:43.467Z,73.69
2018-12-13T16:00:20.864Z,73.99
2018-12-13T16:02:55.926Z,73.65
2018-12-13T16:05:30.516Z,74.08
2018-12-13T16:08:04.343Z,74.20
2018-12-13T16:10:39.385Z,74.39
2018-12-13T16:13:12.617Z,74.54
2018-12-13T16:15:45.277Z,74.57
2018-12-13T16:18:22.352Z,75.00
2018-12-13T16:20:58.087Z,75.45
2018-12-13T16:23:31.502Z,75.85
2018-12-13T16:26:06.296Z,76.10
2018-12-13T16:28:40.724Z,76.54
2018-12-13T16:31:15.045Z,76.86
2018-12-13T16:33:49.216Z,76.65
2018-12-13T16:36:22.373Z,77.09
2018-12-13T16:38:57.294Z,77.07
2018-12-13T16:41:32.573Z,76.95
2018-12-13T16:44:07.759Z,77.21
2018-12-13T16:46:41.547Z,77.36
2018-12-13T16:49:14.333Z,77.54
2018-12-13T16:51:47.393Z,77.65
2018-12-13T16:54:20.013Z,78.03
2018-12-13T16:56:53.652Z,78.28
2018-12-13T16:59:27.447Z,78.53
2018-12-13T17:02:02.329Z,78.70
2018-12-13T17:04:37.457Z,78.82
2018-12-13T17:07:11.919Z,79.05
2018-12-13T17:09:47.029Z,79.65
2018-12-13T17:12:24.206Z,80.05
2018-12-13T17:14:58.288Z,79.93
2018-12-13T17:17:31.165Z,80.27
2018-12-13T17:20:06.480Z,80.40
2018-12-13T17:22:47.414Z,80.76
2018-12-13T17:25:20.031Z,80.97
2018-12-13T17:27:56.577Z,80.93
2018-12-13T17:30:30.791Z,80.66
2018-12-13T17:36:15.687Z,80.79
2018-12-13T17:38:48.391Z,80.85
2018-12-13T17:41:21.079Z,80.72
2018-12-13T17:43:56.863Z,80.79
2018-12-13T17:46:31.114Z,81.05
2018-12-13T17:49:06.887Z,81.27
2018-12-13T17:51:42.872Z,81.44
2018-12-13T17:54:17.399Z,81.38
2018-12-13T17:56:51.777Z,81.20
2018-12-13T17:59:25.998Z,80.95
2018-12-13T18:02:02.152Z,81.01
2018-12-13T18:04:36.397Z,81.09
2018-12-13T18:07:13.931Z,81.25
2018-12-13T18:09:46.654Z,81.42
2018-12-13T18:12:19.258Z,81.47
2018-12-13T18:14:52.753Z,81.52
2018-12-13T18:17:26.378Z,81.47
2018-12-13T18:19:59.435Z,81.48
2018-12-13T18:22:34.307Z,81.65
2018-12-13T18:25:08.134Z,81.54
2018-12-13T18:27:48.790Z,81.40
2018-12-13T18:30:24.623Z,81.51
2018-12-13T18:33:03.383Z,81.62
2018-12-13T18:35:37.095Z,81.63
2018-12-13T18:38:14.187Z,81.74
2018-12-13T18:40:49.504Z,81.59
2018-12-13T18:43:23.294Z,81.42
2018-12-13T18:45:59.306Z,81.38
2018-12-13T18:48:33.704Z,81.29
2018-12-13T18:51:08.746Z,81.10
2018-12-13T18:53:42.844Z,80.99
2018-12-13T18:56:17.417Z,80.94
2018-12-13T18:58:55.380Z,80.92
2018-12-13T19:01:46.715Z,80.78
2018-12-13T19:04:30.842Z,80.69
2018-12-13T19:07:07.513Z,80.58
2018-12-13T19:09:53.359Z,80.64
2018-12-13T19:12:38.916Z,80.53
2018-12-13T19:15:33.781Z,80.37
2018-12-13T19:18:10.760Z,80.46
2018-12-13T19:20:49.375Z,80.49
2018-12-13T19:23:22.337Z,80.41
2018-12-13T19:25:58.148Z,80.34
2018-12-13T19:28:32.728Z,80.40
2018-12-13T19:31:08.718Z,80.38
2018-12-13T19:33:47.974Z,80.42
2018-12-13T19:36:21.803Z,80.25
2018-12-13T19:38:57.489Z,80.24
2018-12-13T19:41:49.004Z,80.31
2018-12-13T19:44:23.913Z,79.98
2018-12-13T19:46:58.670Z,79.80
2018-12-13T19:49:41.247Z,79.92
2018-12-13T19:52:14.070Z,80.12
2018-12-13T19:54:48.622Z,80.17
2018-12-13T19:57:23.834Z,79.97
2018-12-13T19:59:58.784Z,80.05
2018-12-13T20:02:33.801Z,80.10
2018-12-13T20:05:09.269Z,80.17
2018-12-13T20:07:42.959Z,80.61
2018-12-13T20:10:19.491Z,80.82
2018-12-13T20:12:52.919Z,80.65
2018-12-13T20:15:26.381Z,80.58
2018-12-13T20:18:02.994Z,80.76
2018-12-13T20:20:37.219Z,80.99
2018-12-13T20:23:10.529Z,81.06
2018-12-13T20:25:49.264Z,81.13
2018-12-13T20:28:22.999Z,81.06
2018-12-13T20:30:58.063Z,81.00
2018-12-13T20:33:32.871Z,81.30
2018-12-13T20:36:08.853Z,81.21
2018-12-13T20:38:42.886Z,81.27
2018-12-13T20:41:16.723Z,81.20
2018-12-13T20:43:52.934Z,81.28
2018-12-13T20:46:27.171Z,81.15
2018-12-13T20:49:05.345Z,81.38
2018-12-13T20:51:39.112Z,81.78
2018-12-13T20:54:12.053Z,82.08
2018-12-13T20:56:45.934Z,81.97
2018-12-13T20:59:20.319Z,81.93
2018-12-13T21:01:53.150Z,82.26
2018-12-13T21:04:27.831Z,82.42
2018-12-13T21:07:06.020Z,82.75
2018-12-13T21:09:39.099Z,83.00
2018-12-13T21:12:17.093Z,83.69
2018-12-13T21:14:52.656Z,84.14
2018-12-13T21:17:27.277Z,84.50
2018-12-13T21:20:01.270Z,84.76
2018-12-13T21:22:36.464Z,84.93
2018-12-13T21:25:10.746Z,85.03
2018-12-13T21:27:46.325Z,85.19
2018-12-13T21:30:19.413Z,85.26
2018-12-13T21:32:52.211Z,85.25
2018-12-13T21:35:27.361Z,85.23
2018-12-13T21:38:00.198Z,85.24
2018-12-13T21:40:35.250Z,85.28
2018-12-13T21:43:10.310Z,85.31
2018-12-13T21:45:44.031Z,85.45
2018-12-13T21:51:04.626Z,85.50
2018-12-13T21:53:42.453Z,85.24
2018-12-13T21:56:15.668Z,84.89
2018-12-13T21:58:48.872Z,84.79
2018-12-13T22:01:29.448Z,85.42
2018-12-13T22:04:03.746Z,85.94
2018-12-13T22:06:38.049Z,86.29
2018-12-13T22:09:14.163Z,86.23
2018-12-13T22:11:47.039Z,86.28
2018-12-13T22:14:21.171Z,86.12
2018-12-13T22:16:56.424Z,86.01
2018-12-13T22:19:30.144Z,85.97
2018-12-13T22:22:03.753Z,86.05
2018-12-13T22:24:37.057Z,86.06
2018-12-13T22:27:11.677Z,86.04
2018-12-13T22:29:46.001Z,85.93
2018-12-13T22:32:19.547Z,85.83
2018-12-13T22:34:52.390Z,85.88
2018-12-13T22:37:25.247Z,86.34
2018-12-13T22:39:58.813Z,86.68
2018-12-13T22:42:31.573Z,86.90
2018-12-13T22:45:13.282Z,87.23
2018-12-13T22:47:46.966Z,87.44
2018-12-13T22:50:19.821Z,87.49
2018-12-13T22:52:52.776Z,87.42
2018-12-13T22:55:25.485Z,87.44
2018-12-13T22:57:58.079Z,87.60
2018-12-13T23:00:31.301Z,87.55
2018-12-13T23:03:08.550Z,87.25
2018-12-13T23:05:41.376Z,87.32
2018-12-13T23:08:15.425Z,87.45
2018-12-13T23:10:48.313Z,87.64
2018-12-13T23:13:20.949Z,87.80
2018-12-13T23:15:54.810Z,87.65
2018-12-13T23:18:28.552Z,87.75
2018-12-13T23:21:01.358Z,87.59
2018-12-13T23:23:38.684Z,87.49
2018-12-13T23:26:12.875Z,87.59
2018-12-13T23:28:46.214Z,87.64
2018-12-13T23:31:21.404Z,87.60
2018-12-13T23:33:58.431Z,87.56
2018-12-13T23:36:31.210Z,87.57
2018-12-13T23:39:04.769Z,87.64
2018-12-13T23:41:39.403Z,87.72
2018-12-13T23:44:19.556Z,87.73
2018-12-13T23:46:54.021Z,87.74
2018-12-13T23:49:27.815Z,87.74
2018-12-13T23:52:00.411Z,87.53
2018-12-13T23:54:33.563Z,87.36
2018-12-13T23:57:07.025Z,87.30
2018-12-13T23:59:42.380Z,86.98
